»·PEaware :: UAL286 KPHX-KLAX

UAL286 :: KPHX-KLAX

FLIGHT INFORMATION

Flight Status: Arrived
Operator:
United Airlines
More flights by this operator :: More flights under this callsign
Pilot: Anonymous 3226 (3226)
Aircraft: BOEING 737-900
(B739)
More flights by this aircraft type
Origin: KPHX Phoenix Sky Harbor Intl
United States
Destination: KLAX Los Angeles Intl
United States
More flights between these airports :: More routes between these airports
Route: FYRBD1 MOHAK J2 IPL AMMOR OLAAA2
File this flight plan on PilotEdge
Remarks: RMK / SIMBRIEF
Altitude:
(Current/Filed)
34,000ft
Speed:
(Current/Filed)
451kts
Departed: 01-Sep-23 06:20 PM
Arrived: 01-Sep-23 07:24 PM
Distance/Time
Traveled:
320nm/1:03
Distance/Time
To Go:
Arrived

Flight Plot

Page will automatically refresh every two minutes.

Flight plan parsing failed; only flown route is shown


Map Options




Map Legend


Flown Route
Filed Route
Departure Airport
Arrival Airport
Navaid (VOR, NDB)
Fix

Horizontal Profiles

Position Reports

Time Latitude Longitude Heading Altitude Ground
Speed
01-Sep-23 17:38 33.437867 -112.009353 102 1153ft 0kts
01-Sep-23 17:39 33.437867 -112.009353 102 1151ft 0kts
01-Sep-23 17:40 33.437867 -112.009353 102 1151ft 0kts
01-Sep-23 17:41 33.437867 -112.009353 102 1151ft 0kts
01-Sep-23 17:42 33.437867 -112.009353 102 1151ft 0kts
01-Sep-23 17:43 33.437867 -112.009353 102 1151ft 0kts
01-Sep-23 17:44 33.437867 -112.009353 102 1151ft 0kts
01-Sep-23 17:45 33.437867 -112.009353 102 1151ft 0kts
01-Sep-23 17:46 33.437867 -112.009353 102 1151ft 0kts
01-Sep-23 17:47 33.437867 -112.009353 102 1151ft 0kts
01-Sep-23 17:48 33.437867 -112.009353 102 1151ft 0kts
01-Sep-23 17:49 33.437867 -112.009353 102 1151ft 0kts
01-Sep-23 17:50 33.437867 -112.009353 102 1151ft 0kts
01-Sep-23 17:51 33.437867 -112.009353 102 1151ft 0kts
01-Sep-23 17:52 33.437867 -112.009353 102 1151ft 0kts
01-Sep-23 17:53 33.437867 -112.009353 102 1148ft 0kts
01-Sep-23 17:54 33.437867 -112.009353 102 1148ft 0kts
01-Sep-23 17:55 33.437867 -112.009353 102 1148ft 0kts
01-Sep-23 17:56 33.437867 -112.009353 102 1148ft 0kts
01-Sep-23 17:57 33.437867 -112.009353 102 1148ft 0kts
01-Sep-23 17:58 33.437867 -112.009353 102 1148ft 0kts
01-Sep-23 17:59 33.437867 -112.009353 102 1148ft 0kts
01-Sep-23 18:00 33.437867 -112.009353 102 1145ft 0kts
01-Sep-23 18:01 33.437867 -112.009353 102 1145ft 0kts
01-Sep-23 18:02 33.437867 -112.009353 102 1145ft 0kts
01-Sep-23 18:03 33.437867 -112.009353 102 1145ft 0kts
01-Sep-23 18:04 33.437867 -112.009353 102 1145ft 0kts
01-Sep-23 18:05 33.437867 -112.009353 102 1145ft 0kts
01-Sep-23 18:06 33.437867 -112.009353 102 1145ft 0kts
01-Sep-23 18:07 33.437950 -112.010017 61 1129ft 2kts
01-Sep-23 18:08 33.437840 -112.010110 16 1128ft 0kts
01-Sep-23 18:09 33.437840 -112.010110 16 1137ft 0kts
01-Sep-23 18:10 33.437840 -112.010110 16 1137ft 0kts
01-Sep-23 18:11 33.437840 -112.010110 16 1137ft 0kts
01-Sep-23 18:12 33.438480 -112.010207 358 1135ft 3kts
01-Sep-23 18:13 33.439023 -112.013574 269 1137ft 14kts
01-Sep-23 18:14 33.439027 -112.018545 270 1137ft 15kts
01-Sep-23 18:15 33.439028 -112.024112 270 1137ft 17kts
01-Sep-23 18:16 33.439074 -112.029293 291 1137ft 10kts
01-Sep-23 18:17 33.439957 -112.029677 358 1126ft 1kts
01-Sep-23 18:18 33.440863 -112.028147 89 1136ft 13kts
01-Sep-23 18:19 33.440929 -111.984837 93 2331ft 179kts
01-Sep-23 18:20 33.437660 -111.915213 94 4266ft 233kts
01-Sep-23 18:21 33.414866 -111.847153 151 6713ft 238kts
01-Sep-23 18:22 33.358403 -111.867087 227 9513ft 247kts
01-Sep-23 18:23 33.358134 -111.952906 272 11555ft 296kts
01-Sep-23 18:24 33.339476 -112.054504 229 12674ft 346kts
01-Sep-23 18:25 33.281093 -112.148966 231 15038ft 359kts
01-Sep-23 18:26 33.221192 -112.246532 231 17170ft 370kts
01-Sep-23 18:27 33.159335 -112.346815 231 19116ft 380kts
01-Sep-23 18:28 33.095812 -112.449505 231 20854ft 388kts
01-Sep-23 18:30 33.030891 -112.554195 231 22524ft 396kts
01-Sep-23 18:31 32.964665 -112.661301 236 23944ft 406kts
01-Sep-23 18:32 32.940148 -112.794113 258 25192ft 419kts
01-Sep-23 18:33 32.921561 -112.932067 258 26404ft 425kts
01-Sep-23 18:34 32.902445 -113.072052 258 27527ft 431kts
01-Sep-23 18:35 32.882924 -113.213923 258 28595ft 438kts
01-Sep-23 18:36 32.863043 -113.357272 258 29952ft 436kts
01-Sep-23 18:37 32.843196 -113.499135 258 31192ft 434kts
01-Sep-23 18:38 32.823345 -113.639994 258 32518ft 431kts
01-Sep-23 18:39 32.803363 -113.780179 259 33703ft 430kts
01-Sep-23 18:40 32.783303 -113.920196 259 33945ft 429kts
01-Sep-23 18:41 32.774263 -114.060414 268 33955ft 427kts
01-Sep-23 18:42 32.773474 -114.201591 267 33953ft 427kts
01-Sep-23 18:43 32.771604 -114.343392 267 33950ft 432kts
01-Sep-23 18:44 32.769719 -114.486868 267 33950ft 436kts
01-Sep-23 18:45 32.767618 -114.631568 266 33947ft 439kts
01-Sep-23 18:46 32.764870 -114.776789 266 33947ft 440kts
01-Sep-23 18:47 32.762042 -114.922288 266 33948ft 439kts
01-Sep-23 18:48 32.759037 -115.067021 265 33939ft 437kts
01-Sep-23 18:49 32.755865 -115.210438 265 33941ft 434kts
01-Sep-23 18:50 32.752570 -115.353945 265 33936ft 433kts
01-Sep-23 18:51 32.749191 -115.496362 266 33935ft 432kts
01-Sep-23 18:52 32.765496 -115.639082 275 33965ft 437kts
01-Sep-23 18:53 32.784130 -115.781885 275 33952ft 439kts
01-Sep-23 18:53 32.799363 -115.901352 274 33949ft 440kts
01-Sep-23 18:55 32.861797 -116.054594 296 33958ft 449kts
01-Sep-23 18:56 32.925516 -116.183154 296 33857ft 453kts
01-Sep-23 18:57 32.991037 -116.314746 297 30797ft 468kts
01-Sep-23 18:58 33.055692 -116.446301 293 28352ft 450kts
01-Sep-23 18:58 33.096371 -116.558287 290 26494ft 434kts
01-Sep-23 18:59 33.139978 -116.689368 277 24320ft 417kts
01-Sep-23 19:01 33.160992 -116.846608 277 21690ft 403kts
01-Sep-23 19:02 33.179777 -116.976389 277 19634ft 390kts
01-Sep-23 19:02 33.195082 -117.082125 277 17858ft 385kts
01-Sep-23 19:03 33.212894 -117.205971 277 15865ft 372kts
01-Sep-23 19:04 33.230020 -117.325826 277 14020ft 359kts
01-Sep-23 19:05 33.247675 -117.438664 277 13448ft 342kts
01-Sep-23 19:07 33.278924 -117.564638 302 12735ft 351kts
01-Sep-23 19:07 33.323385 -117.645623 299 11978ft 344kts
01-Sep-23 19:08 33.374560 -117.741249 299 11136ft 339kts
01-Sep-23 19:09 33.424651 -117.834668 298 10282ft 321kts
01-Sep-23 19:10 33.470404 -117.919973 301 9544ft 291kts
01-Sep-23 19:11 33.542916 -117.961206 337 8795ft 297kts
01-Sep-23 19:12 33.620427 -117.995039 338 8040ft 295kts
01-Sep-23 19:13 33.698782 -118.023940 342 7064ft 288kts
01-Sep-23 19:14 33.775027 -118.051749 342 6961ft 274kts
01-Sep-23 19:15 33.843889 -118.083674 337 6077ft 256kts
01-Sep-23 19:16 33.910993 -118.100446 351 4841ft 243kts
01-Sep-23 19:17 33.971550 -118.116405 317 4024ft 210kts
01-Sep-23 19:18 33.967179 -118.178786 241 3627ft 200kts
01-Sep-23 19:19 33.951881 -118.244536 259 2358ft 203kts
01-Sep-23 19:20 33.945400 -118.304650 260 1417ft 156kts
01-Sep-23 19:21 33.940345 -118.355099 257 604ft 156kts
01-Sep-23 19:22 33.935336 -118.402656 262 110ft 74kts
01-Sep-23 19:23 33.935889 -118.407847 290 104ft 0kts
01-Sep-23 19:24 33.936024 -118.408283 292 104ft 0kts
01-Sep-23 19:25 33.936024 -118.408283 292 104ft 0kts
01-Sep-23 19:26 33.936032 -118.408309 292 104ft 1kts
01-Sep-23 19:27 33.937361 -118.409058 353 104ft 11kts
01-Sep-23 19:28 33.938978 -118.406282 82 99ft 13kts
01-Sep-23 19:29 33.939428 -118.401798 82 98ft 13kts
01-Sep-23 19:30 33.939845 -118.398003 33 95ft 0kts
01-Sep-23 19:31 33.941356 -118.398320 353 95ft 11kts
01-Sep-23 19:32 33.942646 -118.398666 293 93ft 2kts
01-Sep-23 19:33 33.942669 -118.399013 266 93ft 0kts
01-Sep-23 19:34 33.942669 -118.399013 266 93ft 0kts
01-Sep-23 19:35 33.942669 -118.399013 266 93ft 0kts

Navigation Log

Ident Type
Flight plan parsing failed, navigation log unavailable